createdAt,value
2018-10-07T00:11:40.172Z,4.93
2018-10-07T00:32:17.286Z,4.57
2018-10-07T00:52:58.934Z,4.60
2018-10-07T01:13:38.892Z,4.07
2018-10-07T01:34:17.526Z,4.80
2018-10-07T01:54:54.353Z,4.57
2018-10-07T02:15:32.695Z,5.00
2018-10-07T02:36:12.885Z,4.40
2018-10-07T02:56:51.223Z,3.87
2018-10-07T03:17:30.491Z,3.80
2018-10-07T03:38:10.679Z,3.70
2018-10-07T03:58:49.022Z,3.73
2018-10-07T04:19:29.213Z,5.20
2018-10-07T04:40:10.624Z,4.10
2018-10-07T05:00:54.195Z,4.40
2018-10-07T05:21:32.228Z,4.17
2018-10-07T06:00:16.235Z,4.43
2018-10-07T06:20:58.579Z,4.50
2018-10-07T06:41:41.092Z,5.20
2018-10-07T07:02:18.027Z,4.40
2018-10-07T07:22:55.584Z,9.60
2018-10-07T07:43:31.647Z,6.70
2018-10-07T08:04:08.760Z,11.20
2018-10-07T08:24:46.327Z,14.30
2018-10-07T08:45:23.301Z,28.07
2018-10-07T09:06:02.564Z,29.57
2018-10-07T09:26:43.996Z,36.60
2018-10-07T09:47:22.021Z,36.43
2018-10-07T10:29:26.940Z,33.17
2018-10-07T10:50:44.917Z,33.17
2018-10-07T11:34:14.626Z,33.00
2018-10-07T11:55:07.360Z,32.30
2018-10-07T12:15:45.137Z,31.97
2018-10-07T12:36:29.637Z,30.17
2018-10-07T12:57:08.891Z,30.00
2018-10-07T13:17:52.157Z,23.83
2018-10-07T13:55:03.385Z,20.07
2018-10-07T14:15:42.927Z,21.80
2018-10-07T14:36:19.085Z,33.40
2018-10-07T14:57:02.106Z,16.10
2018-10-07T15:17:43.520Z,17.40
2018-10-07T15:38:21.559Z,15.97
2018-10-07T15:59:00.839Z,14.67
2018-10-07T16:19:42.256Z,13.83
2018-10-07T16:40:21.510Z,11.60
2018-10-07T17:01:00.775Z,11.00
2018-10-07T17:21:39.413Z,10.90
2018-10-07T17:42:22.383Z,11.50
2018-10-07T18:03:00.846Z,11.60
2018-10-07T18:23:36.913Z,12.07
2018-10-07T18:44:16.367Z,10.03
2018-10-07T19:04:59.442Z,7.20
2018-10-07T19:25:43.623Z,8.27
2018-10-07T19:46:23.813Z,8.20
2018-10-07T20:07:00.316Z,9.10
2018-10-07T20:27:42.813Z,8.13
2018-10-07T20:48:22.840Z,6.23
2018-10-07T21:09:03.949Z,7.07
2018-10-07T21:29:41.434Z,6.93
2018-10-07T21:50:17.568Z,7.60
2018-10-07T22:10:57.760Z,7.77
2018-10-07T22:31:37.021Z,6.40
2018-10-07T22:52:14.439Z,5.47
2018-10-07T23:12:51.561Z,5.40
2018-10-07T23:33:29.904Z,5.43
2018-10-07T23:54:09.171Z,4.40
